Time;durP1;ratioP1;P1;durP2;ratioP2;P2;SDS_P1;SDS_P2;PMS_P1;PMS_P2;Temp;Humidity;BMP_temperature;BMP_pressure;BME280_temperature;BME280_humidity;BME280_pressure;Samples;Min_cycle;Max_cycle;Signal;HPM_P1;HPM_P2
2021/07/20 00:07:02;;;;;;;18.20;10.73;;;;;;;15.90;67.32;98611.81;512952;1090;103431;-43
2021/07/20 00:17:09;;;;;;;19.80;11.23;;;;;;;15.89;66.99;98602.21;512715;1089;103550;-42
2021/07/20 00:27:18;;;;;;;22.05;10.95;;;;;;;15.93;67.50;98590.75;512830;1089;103105;-42
2021/07/20 00:37:25;;;;;;;14.80;11.93;;;;;;;15.84;67.63;98600.31;512844;1090;103102;-40
2021/07/20 00:47:33;;;;;;;19.03;11.83;;;;;;;15.77;67.86;98588.31;513001;1089;103428;-42
2021/07/20 00:57:43;;;;;;;31.40;10.83;;;;;;;15.75;67.91;98567.25;512802;1089;103594;-41
2021/07/20 01:07:53;;;;;;;20.50;10.43;;;;;;;15.83;68.03;98561.39;512864;1089;103508;-42
2021/07/20 01:18:01;;;;;;;18.50;10.47;;;;;;;15.84;68.20;98570.19;513607;1088;103170;-44
2021/07/20 01:28:13;;;;;;;18.23;9.70;;;;;;;15.82;68.64;98557.13;512867;1088;103128;-42
2021/07/20 01:38:21;;;;;;;17.07;9.83;;;;;;;15.74;69.37;98552.32;513028;1092;103446;-41
2021/07/20 01:48:28;;;;;;;;;;;;;;;15.61;69.41;98542.16;512696;1089;103124;-40
2021/07/20 02:08:48;;;;;;;16.30;9.90;;;;;;;15.39;69.45;98560.23;512969;1090;103511;-42
2021/07/20 02:18:58;;;;;;;20.67;10.63;;;;;;;15.30;69.63;98550.06;512973;1088;103416;-42
2021/07/20 02:29:07;;;;;;;17.30;9.90;;;;;;;15.31;69.84;98551.66;512838;1090;103442;-40
2021/07/20 02:39:15;;;;;;;16.55;9.93;;;;;;;15.29;70.30;98558.31;512826;1089;103044;-42
2021/07/20 02:49:24;;;;;;;19.17;9.50;;;;;;;15.29;70.19;98560.98;512864;1090;103485;-43
2021/07/20 02:59:33;;;;;;;17.43;10.00;;;;;;;15.35;70.28;98579.38;512700;1090;103147;-43
2021/07/20 03:09:42;;;;;;;18.77;10.93;;;;;;;15.30;70.44;98581.23;512818;1088;103387;-43
2021/07/20 03:19:52;;;;;;;21.63;9.68;;;;;;;15.21;70.65;98585.47;512852;1089;103120;-42
2021/07/20 03:30:02;;;;;;;14.95;8.80;;;;;;;15.31;70.71;98585.49;513006;1088;103119;-42
2021/07/20 03:40:12;;;;;;;16.00;9.40;;;;;;;15.44;70.76;98590.34;512805;1088;103141;-42
2021/07/20 03:50:22;;;;;;;15.70;10.10;;;;;;;15.61;70.88;98587.47;512947;1089;103418;-43
2021/07/20 04:00:30;;;;;;;28.20;13.40;;;;;;;15.99;70.37;98588.88;513013;1088;103377;-42
2021/07/20 04:10:39;;;;;;;19.17;10.17;;;;;;;16.12;70.50;98598.23;512974;1090;103515;-43
2021/07/20 04:20:46;;;;;;;;;;;;;;;16.29;70.26;98598.75;512827;1089;103124;-43
2021/07/20 04:30:54;;;;;;;18.87;10.23;;;;;;;16.45;70.17;98603.02;513056;1089;103119;-43
2021/07/20 04:41:03;;;;;;;16.60;8.90;;;;;;;16.75;70.03;98604.88;512590;1090;104480;-42
2021/07/20 04:51:12;;;;;;;15.67;8.10;;;;;;;17.02;70.23;98606.41;512820;1088;103106;-43
2021/07/20 05:01:20;;;;;;;18.27;9.13;;;;;;;17.07;70.06;98603.74;512648;1090;103159;-43
2021/07/20 05:11:29;;;;;;;19.55;8.70;;;;;;;16.95;70.26;98621.92;512695;1089;103144;-43
2021/07/20 05:21:34;;;;;;;;;;;;;;;17.15;69.95;98622.67;512772;1090;104134;-42
2021/07/20 05:31:41;;;;;;;13.33;7.93;;;;;;;18.57;70.42;98626.39;512725;1089;103508;-41
2021/07/20 05:41:49;;;;;;;13.73;8.47;;;;;;;19.80;68.35;98615.12;512929;1090;103031;-43
2021/07/20 05:51:58;;;;;;;14.87;8.27;;;;;;;20.79;67.05;98620.27;512790;1088;103102;-42
2021/07/20 06:02:06;;;;;;;12.57;9.33;;;;;;;21.94;64.68;98612.03;512892;1090;103147;-42
2021/07/20 06:12:12;;;;;;;12.10;7.80;;;;;;;21.55;63.84;98618.03;512944;1088;103097;-42
2021/07/20 06:22:20;;;;;;;12.97;7.20;;;;;;;21.29;63.52;98640.04;512688;1090;103172;-41
2021/07/20 06:32:30;;;;;;;12.97;6.70;;;;;;;22.06;63.11;98628.49;512869;1088;103207;-42
2021/07/20 06:42:40;;;;;;;14.47;6.40;;;;;;;23.17;61.06;98630.26;512730;1089;103514;-41
2021/07/20 07:13:05;;;;;;;15.00;5.70;;;;;;;22.93;58.71;98657.60;512889;1088;103504;-42
2021/07/20 07:23:16;;;;;;;13.63;6.30;;;;;;;22.56;58.69;98658.80;512725;1090;103121;-42
2021/07/20 07:33:25;;;;;;;10.77;7.57;;;;;;;23.24;58.75;98641.41;512890;1089;103594;-43
2021/07/20 07:53:43;;;;;;;9.67;4.97;;;;;;;24.81;54.36;98634.98;513052;1090;103104;-43
2021/07/20 08:03:54;;;;;;;7.00;5.20;;;;;;;24.28;53.87;98638.91;512954;1088;103597;-41
2021/07/20 08:14:04;;;;;;;12.60;6.03;;;;;;;24.10;51.91;98643.48;512860;1089;103184;-42
2021/07/20 08:24:12;;;;;;;11.87;5.50;;;;;;;24.49;49.78;98629.02;513002;1088;103101;-43
2021/07/20 08:34:23;;;;;;;32.15;6.25;;;;;;;24.40;50.29;98620.14;512855;1088;103172;-43
2021/07/20 08:44:41;;;;;;;10.97;4.67;;;;;;;24.86;48.78;98624.01;512961;1089;103476;-43
2021/07/20 08:54:51;;;;;;;9.30;5.20;;;;;;;25.48;49.18;98628.83;512721;1089;103495;-42
2021/07/20 09:04:59;;;;;;;11.05;4.85;;;;;;;26.11;46.22;98626.98;512970;1089;103152;-41
2021/07/20 09:15:08;;;;;;;13.50;5.37;;;;;;;24.69;46.84;98632.95;513125;1090;103106;-44
2021/07/20 09:25:21;;;;;;;11.03;5.37;;;;;;;24.17;47.77;98632.22;512762;1089;103501;-43
2021/07/20 09:35:31;;;;;;;5.73;4.97;;;;;;;24.01;47.67;98637.30;513094;1091;103528;-43
2021/07/20 09:45:46;;;;;;;11.30;4.80;;;;;;;23.75;48.29;98629.17;513049;1089;103116;-43
2021/07/20 09:56:06;;;;;;;9.80;5.73;;;;;;;24.14;48.38;98630.16;512717;1091;103514;-42
2021/07/20 10:06:19;;;;;;;9.90;4.93;;;;;;;24.23;48.30;98627.44;512982;1089;103504;-44
2021/07/20 10:16:27;;;;;;;9.67;5.07;;;;;;;24.75;46.49;98620.05;512785;1092;103495;-42
2021/07/20 10:26:40;;;;;;;8.60;5.83;;;;;;;24.11;48.46;98617.26;513029;1089;103119;-43
2021/07/20 10:36:47;;;;;;;8.30;5.33;;;;;;;23.08;50.63;98617.86;512854;1090;103146;-39
2021/07/20 10:46:52;;;;;;;8.60;6.23;;;;;;;22.60;52.33;98608.57;512990;1090;103122;-42
2021/07/20 10:57:01;;;;;;;14.83;5.87;;;;;;;22.18;53.07;98607.19;512876;1089;103116;-42
2021/07/20 11:07:11;;;;;;;10.93;6.87;;;;;;;22.17;53.37;98612.88;512892;1090;104259;-41
2021/07/20 11:17:22;;;;;;;8.43;6.17;;;;;;;22.31;52.63;98606.34;513001;1088;103098;-43
2021/07/20 11:27:29;;;;;;;10.13;6.07;;;;;;;22.78;51.90;98605.97;512830;1089;103106;-42
2021/07/20 11:37:38;;;;;;;16.98;6.28;;;;;;;23.80;49.88;98596.62;513034;1089;103071;-42
2021/07/20 12:08:32;;;;;;;10.10;5.67;;;;;;;24.17;48.27;98597.09;512981;1089;103121;-42
2021/07/20 12:18:49;;;;;;;10.68;6.15;;;;;;;23.99;48.84;98593.61;513326;1089;103128;-41
2021/07/20 12:28:56;;;;;;;8.30;5.07;;;;;;;23.67;49.40;98584.08;512844;1090;103143;-41
2021/07/20 12:39:11;;;;;;;17.33;5.63;;;;;;;23.69;48.83;98587.25;512904;1089;103486;-42
2021/07/20 12:49:18;;;;;;;7.73;5.17;;;;;;;23.41;48.62;98589.38;512802;1088;103188;-41
2021/07/20 13:09:35;;;;;;;7.50;4.83;;;;;;;23.51;49.56;98593.70;512914;1090;103127;-40
2021/07/20 13:19:46;;;;;;;7.73;4.17;;;;;;;23.59;49.46;98587.55;512973;1089;103399;-41
2021/07/20 13:29:58;;;;;;;8.13;4.53;;;;;;;23.25;50.42;98577.46;512935;1088;103098;-42
2021/07/20 13:40:09;;;;;;;12.70;4.87;;;;;;;23.31;49.77;98581.59;512977;1090;103151;-42
2021/07/20 13:50:14;;;;;;;7.97;4.77;;;;;;;23.24;49.11;98594.76;512883;1088;103156;-42
2021/07/20 14:00:23;;;;;;;8.57;4.07;;;;;;;23.12;48.68;98598.04;512905;1089;103129;-41
2021/07/20 14:10:31;;;;;;;7.27;4.33;;;;;;;22.89;48.92;98597.31;512890;1088;103495;-44
2021/07/20 14:30:46;;;;;;;5.40;3.77;;;;;;;22.71;48.51;98601.00;512908;1089;103131;-41
2021/07/20 14:40:53;;;;;;;7.23;3.97;;;;;;;22.65;48.92;98594.95;512976;1089;103504;-41
2021/07/20 14:51:05;;;;;;;8.57;4.60;;;;;;;22.70;48.26;98593.23;512945;1088;103153;-42
2021/07/20 15:11:39;;;;;;;11.90;4.03;;;;;;;22.30;48.02;98588.59;513119;1089;103121;-42
2021/07/20 15:21:46;;;;;;;4.73;4.15;;;;;;;22.06;47.84;98590.80;512960;1089;103709;-42
2021/07/20 15:31:56;;;;;;;10.13;4.40;;;;;;;22.13;47.19;98588.46;512922;1088;103094;-41
2021/07/20 15:42:02;;;;;;;10.30;4.40;;;;;;;22.26;47.20;98586.82;512804;1090;103131;-39
2021/07/20 15:52:12;;;;;;;7.03;3.97;;;;;;;22.15;47.31;98586.25;513082;1088;103414;-41
2021/07/20 16:02:21;;;;;;;8.53;5.30;;;;;;;22.22;47.29;98593.90;512908;1089;103115;-40
2021/07/20 16:12:29;;;;;;;9.27;4.97;;;;;;;22.09;47.71;98586.70;512988;1089;103180;-42
2021/07/20 16:22:37;;;;;;;5.80;4.40;;;;;;;21.93;48.36;98599.67;513045;1090;103127;-41
2021/07/20 16:32:43;;;;;;;9.35;4.95;;;;;;;21.67;47.92;98596.77;512894;1088;103134;-41
2021/07/20 16:42:50;;;;;;;12.07;6.77;;;;;;;21.54;48.06;98609.16;513103;1089;103101;-41
2021/07/20 16:52:59;;;;;;;11.80;5.10;;;;;;;21.19;48.79;98618.70;513016;1090;103505;-40
2021/07/20 17:13:22;;;;;;;6.80;4.97;;;;;;;20.82;50.03;98627.77;513108;1089;103501;-40
2021/07/20 17:23:33;;;;;;;10.20;5.10;;;;;;;20.75;50.65;98630.81;512889;1090;103102;-41
2021/07/20 17:33:41;;;;;;;14.10;6.60;;;;;;;20.52;50.47;98637.92;512994;1089;103048;-42
2021/07/20 18:04:07;;;;;;;13.87;7.50;;;;;;;19.66;52.21;98652.61;513089;1089;103156;-43
2021/07/20 18:14:15;;;;;;;14.70;8.33;;;;;;;19.38;52.98;98654.24;512801;1092;103140;-43
2021/07/20 18:34:31;;;;;;;9.93;6.27;;;;;;;18.98;53.74;98663.55;512714;1088;103456;-42
2021/07/20 18:54:44;;;;;;;14.70;7.23;;;;;;;18.56;54.99;98693.62;512901;1088;103518;-42
2021/07/20 19:04:51;;;;;;;11.33;6.17;;;;;;;18.38;55.36;98697.76;512714;1090;103460;-42
2021/07/20 19:14:58;;;;;;;13.77;4.93;;;;;;;18.33;55.77;98706.63;513004;1088;103049;-41
2021/07/20 19:25:09;;;;;;;13.57;6.00;;;;;;;18.23;56.22;98717.41;512786;1089;103137;-42
2021/07/20 19:55:30;;;;;;;10.40;6.00;;;;;;;17.74;57.08;98736.92;512977;1089;103672;-42
2021/07/20 20:05:38;;;;;;;10.63;6.50;;;;;;;17.61;57.41;98748.16;512780;1089;103061;-42
2021/07/20 20:15:46;;;;;;;10.73;6.00;;;;;;;17.48;57.72;98749.52;512956;1089;103134;-42
2021/07/20 20:25:53;;;;;;;8.70;5.40;;;;;;;17.47;57.96;98747.11;513033;1089;103131;-42
2021/07/20 20:36:01;;;;;;;12.07;5.27;;;;;;;17.33;58.69;98748.77;512769;1090;103128;-42
2021/07/20 20:46:08;;;;;;;11.33;7.10;;;;;;;17.16;58.84;98751.72;512754;1088;103399;-42
2021/07/20 20:56:16;;;;;;;11.17;6.10;;;;;;;16.93;58.99;98760.28;512873;1090;103127;-41
2021/07/20 21:06:22;;;;;;;12.37;6.90;;;;;;;16.80;59.43;98769.65;512839;1088;103530;-42
2021/07/20 21:16:30;;;;;;;13.17;6.10;;;;;;;16.71;59.61;98771.23;513124;1089;103116;-40
2021/07/20 21:26:38;;;;;;;11.80;6.07;;;;;;;16.80;59.95;98778.46;512921;1090;103380;-40
2021/07/20 21:36:45;;;;;;;14.27;6.80;;;;;;;16.84;60.43;98792.08;512733;1089;103112;-42
2021/07/20 21:46:53;;;;;;;9.80;6.73;;;;;;;16.92;60.29;98798.75;512751;1091;103100;-42
2021/07/20 21:57:01;;;;;;;16.48;6.95;;;;;;;16.90;60.51;98799.02;512856;1089;103097;-42
2021/07/20 22:07:11;;;;;;;12.20;6.45;;;;;;;16.89;60.37;98797.42;513180;1092;103539;-42
2021/07/20 22:17:21;;;;;;;12.83;5.50;;;;;;;16.93;60.55;98803.83;512795;1088;103121;-40
2021/07/20 22:27:29;;;;;;;11.30;5.93;;;;;;;16.97;60.81;98810.23;512823;1089;103153;-42
2021/07/20 22:37:37;;;;;;;9.28;6.00;;;;;;;16.95;60.81;98809.70;512819;1088;103592;-42
2021/07/20 22:47:47;;;;;;;9.10;6.10;;;;;;;16.84;60.85;98808.91;513166;1089;103463;-41
2021/07/20 22:57:53;;;;;;;;;;;;;;;16.75;61.21;98817.69;512734;1090;103527;-43
2021/07/20 23:08:02;;;;;;;7.93;5.03;;;;;;;16.57;61.10;98818.98;512862;1090;103103;-41
2021/07/20 23:18:14;;;;;;;13.75;5.45;;;;;;;16.49;61.17;98817.61;513049;1088;103119;-41
2021/07/20 23:28:21;;;;;;;12.17;5.10;;;;;;;16.40;61.29;98815.73;513083;1088;103380;-42
2021/07/20 23:38:29;;;;;;;9.73;5.98;;;;;;;16.24;61.30;98837.02;512794;1089;103437;-41
2021/07/20 23:48:37;;;;;;;8.73;5.07;;;;;;;16.05;61.40;98829.72;512778;1089;103100;-42
2021/07/20 23:58:44;;;;;;;9.20;6.70;;;;;;;15.83;61.50;98828.02;512833;1090;103108;-43
